sensor_id;sensor_type;location;lat;lon;timestamp;P1;durP1;ratioP1;P2;durP2;ratioP2
22780;SDS011;11557;50.884;4.322;2022-07-17T00:00:41;5.07;;;1.83;;
22780;SDS011;11557;50.884;4.322;2022-07-17T00:03:10;3.83;;;1.60;;
22780;SDS011;11557;50.884;4.322;2022-07-17T00:05:37;5.22;;;1.80;;
22780;SDS011;11557;50.884;4.322;2022-07-17T00:08:04;4.32;;;1.30;;
22780;SDS011;11557;50.884;4.322;2022-07-17T00:10:33;5.90;;;1.65;;
22780;SDS011;11557;50.884;4.322;2022-07-17T00:13:00;6.97;;;2.00;;
22780;SDS011;11557;50.884;4.322;2022-07-17T00:15:26;4.80;;;1.40;;
22780;SDS011;11557;50.884;4.322;2022-07-17T00:17:52;4.43;;;1.67;;
22780;SDS011;11557;50.884;4.322;2022-07-17T00:20:18;3.80;;;1.63;;
22780;SDS011;11557;50.884;4.322;2022-07-17T00:22:43;4.22;;;1.27;;
22780;SDS011;11557;50.884;4.322;2022-07-17T00:25:09;4.93;;;1.92;;
22780;SDS011;11557;50.884;4.322;2022-07-17T00:27:36;3.88;;;1.38;;
22780;SDS011;11557;50.884;4.322;2022-07-17T00:30:02;6.65;;;1.75;;
22780;SDS011;11557;50.884;4.322;2022-07-17T00:32:28;4.82;;;1.52;;
22780;SDS011;11557;50.884;4.322;2022-07-17T00:34:54;3.92;;;1.45;;
22780;SDS011;11557;50.884;4.322;2022-07-17T00:37:20;2.95;;;1.75;;
22780;SDS011;11557;50.884;4.322;2022-07-17T00:39:46;4.20;;;1.83;;
22780;SDS011;11557;50.884;4.322;2022-07-17T00:42:12;8.77;;;1.50;;
22780;SDS011;11557;50.884;4.322;2022-07-17T00:44:39;8.13;;;1.55;;
22780;SDS011;11557;50.884;4.322;2022-07-17T00:47:17;5.75;;;1.60;;
22780;SDS011;11557;50.884;4.322;2022-07-17T00:49:44;4.07;;;1.70;;
22780;SDS011;11557;50.884;4.322;2022-07-17T00:52:12;7.90;;;1.90;;
22780;SDS011;11557;50.884;4.322;2022-07-17T00:54:39;8.57;;;1.65;;
22780;SDS011;11557;50.884;4.322;2022-07-17T00:57:06;6.25;;;1.70;;
22780;SDS011;11557;50.884;4.322;2022-07-17T00:59:35;5.82;;;1.60;;
22780;SDS011;11557;50.884;4.322;2022-07-17T01:02:05;7.70;;;1.80;;
22780;SDS011;11557;50.884;4.322;2022-07-17T01:04:32;3.17;;;1.75;;
22780;SDS011;11557;50.884;4.322;2022-07-17T01:07:02;5.82;;;1.52;;
22780;SDS011;11557;50.884;4.322;2022-07-17T01:09:29;6.88;;;1.58;;
22780;SDS011;11557;50.884;4.322;2022-07-17T01:11:55;6.28;;;2.03;;
22780;SDS011;11557;50.884;4.322;2022-07-17T01:14:24;2.80;;;1.58;;
22780;SDS011;11557;50.884;4.322;2022-07-17T01:16:51;4.13;;;1.60;;
22780;SDS011;11557;50.884;4.322;2022-07-17T01:19:18;3.45;;;1.80;;
22780;SDS011;11557;50.884;4.322;2022-07-17T01:21:46;4.38;;;2.00;;
22780;SDS011;11557;50.884;4.322;2022-07-17T01:24:14;4.70;;;1.67;;
22780;SDS011;11557;50.884;4.322;2022-07-17T01:26:41;3.78;;;1.70;;
22780;SDS011;11557;50.884;4.322;2022-07-17T01:29:08;6.63;;;1.92;;
22780;SDS011;11557;50.884;4.322;2022-07-17T01:31:35;7.15;;;2.13;;
22780;SDS011;11557;50.884;4.322;2022-07-17T01:34:01;5.25;;;2.33;;
22780;SDS011;11557;50.884;4.322;2022-07-17T01:36:29;5.47;;;1.58;;
22780;SDS011;11557;50.884;4.322;2022-07-17T01:38:55;4.13;;;1.73;;
22780;SDS011;11557;50.884;4.322;2022-07-17T01:41:21;10.18;;;2.45;;
22780;SDS011;11557;50.884;4.322;2022-07-17T01:43:47;5.57;;;1.80;;
22780;SDS011;11557;50.884;4.322;2022-07-17T01:46:13;5.07;;;1.67;;
22780;SDS011;11557;50.884;4.322;2022-07-17T01:48:39;6.13;;;1.80;;
22780;SDS011;11557;50.884;4.322;2022-07-17T01:51:05;3.15;;;1.80;;
22780;SDS011;11557;50.884;4.322;2022-07-17T01:53:30;4.50;;;2.05;;
22780;SDS011;11557;50.884;4.322;2022-07-17T01:55:56;4.57;;;1.90;;
22780;SDS011;11557;50.884;4.322;2022-07-17T01:58:22;5.22;;;1.98;;
22780;SDS011;11557;50.884;4.322;2022-07-17T02:00:47;5.10;;;2.00;;
22780;SDS011;11557;50.884;4.322;2022-07-17T02:03:13;6.18;;;1.75;;
22780;SDS011;11557;50.884;4.322;2022-07-17T02:05:38;6.93;;;1.67;;
22780;SDS011;11557;50.884;4.322;2022-07-17T02:08:04;5.00;;;1.80;;
22780;SDS011;11557;50.884;4.322;2022-07-17T02:10:30;5.25;;;2.22;;
22780;SDS011;11557;50.884;4.322;2022-07-17T02:12:56;4.75;;;1.70;;
22780;SDS011;11557;50.884;4.322;2022-07-17T02:15:23;5.22;;;2.10;;
22780;SDS011;11557;50.884;4.322;2022-07-17T02:17:49;6.32;;;2.08;;
22780;SDS011;11557;50.884;4.322;2022-07-17T02:20:14;9.50;;;2.05;;
22780;SDS011;11557;50.884;4.322;2022-07-17T02:22:40;6.50;;;1.80;;
22780;SDS011;11557;50.884;4.322;2022-07-17T02:25:06;5.57;;;1.80;;
22780;SDS011;11557;50.884;4.322;2022-07-17T02:27:33;3.85;;;1.73;;
22780;SDS011;11557;50.884;4.322;2022-07-17T02:30:05;4.78;;;1.83;;
22780;SDS011;11557;50.884;4.322;2022-07-17T02:32:36;5.75;;;1.98;;
22780;SDS011;11557;50.884;4.322;2022-07-17T02:35:03;9.02;;;2.00;;
22780;SDS011;11557;50.884;4.322;2022-07-17T02:37:29;3.08;;;1.70;;
22780;SDS011;11557;50.884;4.322;2022-07-17T02:39:55;5.03;;;1.92;;
22780;SDS011;11557;50.884;4.322;2022-07-17T02:42:21;8.32;;;2.10;;
22780;SDS011;11557;50.884;4.322;2022-07-17T02:44:48;11.75;;;2.30;;
22780;SDS011;11557;50.884;4.322;2022-07-17T02:47:20;8.70;;;2.42;;
22780;SDS011;11557;50.884;4.322;2022-07-17T02:49:47;5.45;;;2.30;;
22780;SDS011;11557;50.884;4.322;2022-07-17T02:52:13;4.72;;;2.38;;
22780;SDS011;11557;50.884;4.322;2022-07-17T02:54:39;5.65;;;2.17;;
22780;SDS011;11557;50.884;4.322;2022-07-17T02:57:04;4.22;;;1.90;;
22780;SDS011;11557;50.884;4.322;2022-07-17T02:59:30;7.35;;;2.20;;
22780;SDS011;11557;50.884;4.322;2022-07-17T03:01:55;6.25;;;2.13;;
22780;SDS011;11557;50.884;4.322;2022-07-17T03:04:21;6.32;;;2.10;;
22780;SDS011;11557;50.884;4.322;2022-07-17T03:06:46;7.03;;;2.08;;
22780;SDS011;11557;50.884;4.322;2022-07-17T03:09:13;5.97;;;2.45;;
22780;SDS011;11557;50.884;4.322;2022-07-17T03:11:39;4.57;;;2.47;;
22780;SDS011;11557;50.884;4.322;2022-07-17T03:14:04;4.85;;;2.58;;
22780;SDS011;11557;50.884;4.322;2022-07-17T03:16:30;6.40;;;2.10;;
22780;SDS011;11557;50.884;4.322;2022-07-17T03:18:55;4.88;;;2.30;;
22780;SDS011;11557;50.884;4.322;2022-07-17T03:21:21;4.90;;;2.47;;
22780;SDS011;11557;50.884;4.322;2022-07-17T03:23:46;5.78;;;2.20;;
22780;SDS011;11557;50.884;4.322;2022-07-17T03:26:12;5.55;;;2.13;;
22780;SDS011;11557;50.884;4.322;2022-07-17T03:28:38;5.10;;;2.22;;
22780;SDS011;11557;50.884;4.322;2022-07-17T03:31:03;7.53;;;2.30;;
22780;SDS011;11557;50.884;4.322;2022-07-17T03:33:29;8.40;;;2.50;;
22780;SDS011;11557;50.884;4.322;2022-07-17T03:35:54;7.80;;;3.20;;
22780;SDS011;11557;50.884;4.322;2022-07-17T03:38:21;5.88;;;2.50;;
22780;SDS011;11557;50.884;4.322;2022-07-17T03:40:46;12.35;;;2.72;;
22780;SDS011;11557;50.884;4.322;2022-07-17T03:43:12;6.20;;;2.60;;
22780;SDS011;11557;50.884;4.322;2022-07-17T03:45:38;6.00;;;2.25;;
22780;SDS011;11557;50.884;4.322;2022-07-17T03:48:04;7.47;;;2.10;;
22780;SDS011;11557;50.884;4.322;2022-07-17T03:50:30;7.90;;;2.70;;
22780;SDS011;11557;50.884;4.322;2022-07-17T03:52:56;8.13;;;3.35;;
22780;SDS011;11557;50.884;4.322;2022-07-17T03:55:21;10.52;;;2.95;;
22780;SDS011;11557;50.884;4.322;2022-07-17T03:57:47;6.63;;;2.83;;
22780;SDS011;11557;50.884;4.322;2022-07-17T04:00:13;7.75;;;2.88;;
22780;SDS011;11557;50.884;4.322;2022-07-17T04:02:40;10.13;;;3.00;;
22780;SDS011;11557;50.884;4.322;2022-07-17T04:05:06;7.90;;;2.78;;
22780;SDS011;11557;50.884;4.322;2022-07-17T04:07:34;9.10;;;2.70;;
22780;SDS011;11557;50.884;4.322;2022-07-17T04:10:04;6.28;;;2.33;;
22780;SDS011;11557;50.884;4.322;2022-07-17T04:12:31;8.93;;;2.45;;
22780;SDS011;11557;50.884;4.322;2022-07-17T04:14:56;7.63;;;2.88;;
22780;SDS011;11557;50.884;4.322;2022-07-17T04:17:22;9.68;;;2.90;;
22780;SDS011;11557;50.884;4.322;2022-07-17T04:19:48;8.23;;;2.70;;
22780;SDS011;11557;50.884;4.322;2022-07-17T04:22:14;5.75;;;1.98;;
22780;SDS011;11557;50.884;4.322;2022-07-17T04:24:40;6.80;;;2.80;;
22780;SDS011;11557;50.884;4.322;2022-07-17T04:27:06;10.13;;;2.70;;
22780;SDS011;11557;50.884;4.322;2022-07-17T04:29:32;6.97;;;2.60;;
22780;SDS011;11557;50.884;4.322;2022-07-17T04:31:58;9.13;;;2.50;;
22780;SDS011;11557;50.884;4.322;2022-07-17T04:34:23;5.93;;;2.25;;
22780;SDS011;11557;50.884;4.322;2022-07-17T04:36:49;7.68;;;2.38;;
22780;SDS011;11557;50.884;4.322;2022-07-17T04:39:15;6.82;;;2.40;;
22780;SDS011;11557;50.884;4.322;2022-07-17T04:41:41;8.43;;;2.88;;
22780;SDS011;11557;50.884;4.322;2022-07-17T04:44:06;13.98;;;2.67;;
22780;SDS011;11557;50.884;4.322;2022-07-17T04:46:32;10.20;;;2.47;;
22780;SDS011;11557;50.884;4.322;2022-07-17T04:48:58;4.43;;;2.33;;
22780;SDS011;11557;50.884;4.322;2022-07-17T04:51:23;7.25;;;2.90;;
22780;SDS011;11557;50.884;4.322;2022-07-17T04:53:49;5.18;;;2.20;;
22780;SDS011;11557;50.884;4.322;2022-07-17T04:56:14;7.32;;;2.42;;
22780;SDS011;11557;50.884;4.322;2022-07-17T04:58:40;4.80;;;2.13;;
22780;SDS011;11557;50.884;4.322;2022-07-17T05:01:06;8.23;;;2.70;;
22780;SDS011;11557;50.884;4.322;2022-07-17T05:03:31;10.13;;;2.63;;
22780;SDS011;11557;50.884;4.322;2022-07-17T05:05:57;12.95;;;2.92;;
22780;SDS011;11557;50.884;4.322;2022-07-17T05:08:23;9.25;;;2.92;;
22780;SDS011;11557;50.884;4.322;2022-07-17T05:10:48;11.98;;;3.08;;
22780;SDS011;11557;50.884;4.322;2022-07-17T05:13:14;8.80;;;3.03;;
22780;SDS011;11557;50.884;4.322;2022-07-17T05:15:40;7.82;;;3.20;;
22780;SDS011;11557;50.884;4.322;2022-07-17T05:18:05;9.75;;;3.50;;
22780;SDS011;11557;50.884;4.322;2022-07-17T05:20:31;8.43;;;2.78;;
22780;SDS011;11557;50.884;4.322;2022-07-17T05:22:57;9.23;;;2.88;;
22780;SDS011;11557;50.884;4.322;2022-07-17T05:25:23;8.57;;;3.10;;
22780;SDS011;11557;50.884;4.322;2022-07-17T05:27:50;6.88;;;2.92;;
22780;SDS011;11557;50.884;4.322;2022-07-17T05:30:16;9.23;;;3.00;;
22780;SDS011;11557;50.884;4.322;2022-07-17T05:32:42;12.98;;;3.67;;
22780;SDS011;11557;50.884;4.322;2022-07-17T05:35:07;7.00;;;2.70;;
22780;SDS011;11557;50.884;4.322;2022-07-17T05:37:33;6.55;;;2.75;;
22780;SDS011;11557;50.884;4.322;2022-07-17T05:39:59;9.88;;;3.22;;
22780;SDS011;11557;50.884;4.322;2022-07-17T05:42:25;8.07;;;3.10;;
22780;SDS011;11557;50.884;4.322;2022-07-17T05:44:50;9.88;;;3.10;;
22780;SDS011;11557;50.884;4.322;2022-07-17T05:47:16;9.85;;;2.92;;
22780;SDS011;11557;50.884;4.322;2022-07-17T05:49:41;6.57;;;2.97;;
22780;SDS011;11557;50.884;4.322;2022-07-17T05:52:07;5.93;;;2.70;;
22780;SDS011;11557;50.884;4.322;2022-07-17T05:54:33;7.78;;;2.75;;
22780;SDS011;11557;50.884;4.322;2022-07-17T05:56:59;6.47;;;2.70;;
22780;SDS011;11557;50.884;4.322;2022-07-17T05:59:25;8.82;;;2.40;;
22780;SDS011;11557;50.884;4.322;2022-07-17T06:01:51;6.68;;;2.53;;
22780;SDS011;11557;50.884;4.322;2022-07-17T06:04:17;5.20;;;2.60;;
22780;SDS011;11557;50.884;4.322;2022-07-17T06:06:42;7.75;;;2.38;;
22780;SDS011;11557;50.884;4.322;2022-07-17T06:09:08;6.60;;;2.33;;
22780;SDS011;11557;50.884;4.322;2022-07-17T06:11:34;5.35;;;2.10;;
22780;SDS011;11557;50.884;4.322;2022-07-17T06:13:59;7.55;;;2.40;;
22780;SDS011;11557;50.884;4.322;2022-07-17T06:16:25;6.13;;;2.30;;
22780;SDS011;11557;50.884;4.322;2022-07-17T06:18:51;11.15;;;2.67;;
22780;SDS011;11557;50.884;4.322;2022-07-17T06:21:16;12.23;;;2.80;;
22780;SDS011;11557;50.884;4.322;2022-07-17T06:23:42;12.40;;;2.50;;
22780;SDS011;11557;50.884;4.322;2022-07-17T06:26:08;8.27;;;2.60;;
22780;SDS011;11557;50.884;4.322;2022-07-17T06:28:33;9.05;;;2.70;;
22780;SDS011;11557;50.884;4.322;2022-07-17T06:30:59;8.60;;;2.38;;
22780;SDS011;11557;50.884;4.322;2022-07-17T06:33:26;7.75;;;2.75;;
22780;SDS011;11557;50.884;4.322;2022-07-17T06:35:51;5.68;;;2.40;;
22780;SDS011;11557;50.884;4.322;2022-07-17T06:38:17;6.03;;;2.28;;
22780;SDS011;11557;50.884;4.322;2022-07-17T06:40:43;10.68;;;2.47;;
22780;SDS011;11557;50.884;4.322;2022-07-17T06:43:09;10.52;;;2.53;;
22780;SDS011;11557;50.884;4.322;2022-07-17T06:45:35;10.68;;;2.58;;
22780;SDS011;11557;50.884;4.322;2022-07-17T06:48:01;9.10;;;2.53;;
22780;SDS011;11557;50.884;4.322;2022-07-17T06:50:26;6.43;;;2.63;;
22780;SDS011;11557;50.884;4.322;2022-07-17T06:52:52;6.57;;;2.60;;
22780;SDS011;11557;50.884;4.322;2022-07-17T06:55:18;7.32;;;2.28;;
22780;SDS011;11557;50.884;4.322;2022-07-17T06:57:44;5.78;;;2.10;;
22780;SDS011;11557;50.884;4.322;2022-07-17T07:00:09;7.70;;;2.10;;
22780;SDS011;11557;50.884;4.322;2022-07-17T07:02:36;5.80;;;1.80;;
22780;SDS011;11557;50.884;4.322;2022-07-17T07:05:02;7.32;;;2.30;;
22780;SDS011;11557;50.884;4.322;2022-07-17T07:07:29;4.40;;;2.13;;
22780;SDS011;11557;50.884;4.322;2022-07-17T07:09:55;5.50;;;1.92;;
22780;SDS011;11557;50.884;4.322;2022-07-17T07:12:21;5.85;;;1.95;;
22780;SDS011;11557;50.884;4.322;2022-07-17T07:14:46;5.70;;;2.08;;
22780;SDS011;11557;50.884;4.322;2022-07-17T07:17:12;6.20;;;1.88;;
22780;SDS011;11557;50.884;4.322;2022-07-17T07:19:37;6.78;;;2.13;;
22780;SDS011;11557;50.884;4.322;2022-07-17T07:22:03;6.95;;;2.15;;
22780;SDS011;11557;50.884;4.322;2022-07-17T07:24:29;10.02;;;1.88;;
22780;SDS011;11557;50.884;4.322;2022-07-17T07:26:54;4.97;;;1.75;;
22780;SDS011;11557;50.884;4.322;2022-07-17T07:29:20;4.85;;;1.67;;
22780;SDS011;11557;50.884;4.322;2022-07-17T07:31:46;8.30;;;1.80;;
22780;SDS011;11557;50.884;4.322;2022-07-17T07:34:12;5.45;;;1.75;;
22780;SDS011;11557;50.884;4.322;2022-07-17T07:36:39;7.75;;;2.05;;
22780;SDS011;11557;50.884;4.322;2022-07-17T07:39:05;9.60;;;2.58;;
22780;SDS011;11557;50.884;4.322;2022-07-17T07:41:31;8.93;;;2.50;;
22780;SDS011;11557;50.884;4.322;2022-07-17T07:43:56;4.25;;;1.90;;
22780;SDS011;11557;50.884;4.322;2022-07-17T07:46:22;6.75;;;1.90;;
22780;SDS011;11557;50.884;4.322;2022-07-17T07:48:48;5.30;;;1.90;;
22780;SDS011;11557;50.884;4.322;2022-07-17T07:51:13;7.82;;;1.98;;
22780;SDS011;11557;50.884;4.322;2022-07-17T07:53:39;5.85;;;2.00;;
22780;SDS011;11557;50.884;4.322;2022-07-17T07:56:04;7.28;;;2.22;;
22780;SDS011;11557;50.884;4.322;2022-07-17T07:58:33;9.75;;;1.77;;
22780;SDS011;11557;50.884;4.322;2022-07-17T08:04:05;3.83;;;1.60;;
22780;SDS011;11557;50.884;4.322;2022-07-17T08:06:31;6.13;;;1.75;;
22780;SDS011;11557;50.884;4.322;2022-07-17T08:08:57;5.15;;;1.70;;
22780;SDS011;11557;50.884;4.322;2022-07-17T08:11:23;7.70;;;2.05;;
22780;SDS011;11557;50.884;4.322;2022-07-17T08:13:53;7.18;;;1.45;;
22780;SDS011;11557;50.884;4.322;2022-07-17T08:16:20;3.53;;;1.15;;
22780;SDS011;11557;50.884;4.322;2022-07-17T08:18:48;3.83;;;1.25;;
22780;SDS011;11557;50.884;4.322;2022-07-17T08:21:14;7.88;;;1.70;;
22780;SDS011;11557;50.884;4.322;2022-07-17T08:23:40;6.05;;;1.67;;
22780;SDS011;11557;50.884;4.322;2022-07-17T08:26:12;7.28;;;1.35;;
22780;SDS011;11557;50.884;4.322;2022-07-17T08:28:38;3.88;;;1.30;;
22780;SDS011;11557;50.884;4.322;2022-07-17T08:31:03;4.63;;;1.13;;
22780;SDS011;11557;50.884;4.322;2022-07-17T08:33:35;5.72;;;1.38;;
22780;SDS011;11557;50.884;4.322;2022-07-17T08:36:02;7.70;;;1.67;;
22780;SDS011;11557;50.884;4.322;2022-07-17T08:38:27;4.07;;;1.40;;
22780;SDS011;11557;50.884;4.322;2022-07-17T08:40:53;2.80;;;1.10;;
22780;SDS011;11557;50.884;4.322;2022-07-17T08:43:19;5.78;;;1.30;;
22780;SDS011;11557;50.884;4.322;2022-07-17T08:45:46;5.97;;;1.58;;
22780;SDS011;11557;50.884;4.322;2022-07-17T08:48:47;5.70;;;1.60;;
22780;SDS011;11557;50.884;4.322;2022-07-17T08:51:30;5.38;;;1.15;;
22780;SDS011;11557;50.884;4.322;2022-07-17T08:54:15;3.97;;;1.40;;
22780;SDS011;11557;50.884;4.322;2022-07-17T08:56:41;5.55;;;1.23;;
22780;SDS011;11557;50.884;4.322;2022-07-17T08:59:07;3.85;;;1.33;;
22780;SDS011;11557;50.884;4.322;2022-07-17T09:01:33;4.70;;;1.17;;
22780;SDS011;11557;50.884;4.322;2022-07-17T09:04:02;4.30;;;1.25;;
22780;SDS011;11557;50.884;4.322;2022-07-17T09:06:34;8.50;;;1.50;;
22780;SDS011;11557;50.884;4.322;2022-07-17T09:11:30;2.83;;;0.90;;
22780;SDS011;11557;50.884;4.322;2022-07-17T09:14:15;6.68;;;1.50;;
22780;SDS011;11557;50.884;4.322;2022-07-17T09:16:55;6.05;;;1.65;;
22780;SDS011;11557;50.884;4.322;2022-07-17T09:19:27;3.47;;;1.15;;
22780;SDS011;11557;50.884;4.322;2022-07-17T09:27:07;5.10;;;1.30;;
22780;SDS011;11557;50.884;4.322;2022-07-17T09:29:55;7.13;;;1.40;;
22780;SDS011;11557;50.884;4.322;2022-07-17T09:32:24;7.05;;;1.48;;
22780;SDS011;11557;50.884;4.322;2022-07-17T09:34:53;4.07;;;1.30;;
22780;SDS011;11557;50.884;4.322;2022-07-17T09:37:23;2.83;;;1.30;;
22780;SDS011;11557;50.884;4.322;2022-07-17T09:39:50;3.80;;;1.20;;
22780;SDS011;11557;50.884;4.322;2022-07-17T09:42:28;4.93;;;1.33;;
22780;SDS011;11557;50.884;4.322;2022-07-17T09:44:59;3.35;;;1.10;;
22780;SDS011;11557;50.884;4.322;2022-07-17T09:47:30;5.88;;;1.42;;
22780;SDS011;11557;50.884;4.322;2022-07-17T09:49:58;3.92;;;1.60;;
22780;SDS011;11557;50.884;4.322;2022-07-17T09:52:27;2.92;;;1.40;;
22780;SDS011;11557;50.884;4.322;2022-07-17T09:54:57;4.82;;;1.45;;
22780;SDS011;11557;50.884;4.322;2022-07-17T09:57:24;6.05;;;1.35;;
22780;SDS011;11557;50.884;4.322;2022-07-17T09:59:55;5.30;;;1.70;;
22780;SDS011;11557;50.884;4.322;2022-07-17T10:02:23;4.78;;;1.60;;
22780;SDS011;11557;50.884;4.322;2022-07-17T10:04:50;5.38;;;1.80;;
22780;SDS011;11557;50.884;4.322;2022-07-17T10:07:17;7.38;;;1.83;;
22780;SDS011;11557;50.884;4.322;2022-07-17T10:09:43;5.22;;;1.60;;
22780;SDS011;11557;50.884;4.322;2022-07-17T10:12:09;5.95;;;1.67;;
22780;SDS011;11557;50.884;4.322;2022-07-17T10:14:36;4.13;;;1.45;;
22780;SDS011;11557;50.884;4.322;2022-07-17T10:17:21;8.77;;;1.70;;
22780;SDS011;11557;50.884;4.322;2022-07-17T10:19:49;4.10;;;1.58;;
22780;SDS011;11557;50.884;4.322;2022-07-17T10:22:18;4.70;;;1.90;;
22780;SDS011;11557;50.884;4.322;2022-07-17T10:24:48;4.03;;;1.25;;
22780;SDS011;11557;50.884;4.322;2022-07-17T10:30:04;3.83;;;1.65;;
22780;SDS011;11557;50.884;4.322;2022-07-17T10:32:31;5.70;;;1.80;;
22780;SDS011;11557;50.884;4.322;2022-07-17T10:35:00;5.78;;;2.83;;
22780;SDS011;11557;50.884;4.322;2022-07-17T10:37:38;4.40;;;2.00;;
22780;SDS011;11557;50.884;4.322;2022-07-17T10:42:59;4.47;;;1.85;;
22780;SDS011;11557;50.884;4.322;2022-07-17T10:48:10;5.43;;;1.70;;
22780;SDS011;11557;50.884;4.322;2022-07-17T10:50:44;4.47;;;1.52;;
22780;SDS011;11557;50.884;4.322;2022-07-17T10:53:15;3.38;;;1.70;;
22780;SDS011;11557;50.884;4.322;2022-07-17T10:55:45;5.30;;;2.10;;
22780;SDS011;11557;50.884;4.322;2022-07-17T11:00:41;6.10;;;2.20;;
22780;SDS011;11557;50.884;4.322;2022-07-17T11:03:08;5.47;;;2.15;;
22780;SDS011;11557;50.884;4.322;2022-07-17T11:05:37;3.78;;;2.30;;
22780;SDS011;11557;50.884;4.322;2022-07-17T11:08:03;6.75;;;2.50;;
22780;SDS011;11557;50.884;4.322;2022-07-17T11:10:34;13.25;;;1.80;;
22780;SDS011;11557;50.884;4.322;2022-07-17T11:13:08;4.72;;;2.20;;
22780;SDS011;11557;50.884;4.322;2022-07-17T11:15:48;8.40;;;2.47;;
22780;SDS011;11557;50.884;4.322;2022-07-17T11:18:20;4.65;;;2.50;;
22780;SDS011;11557;50.884;4.322;2022-07-17T11:20:55;6.43;;;3.13;;
22780;SDS011;11557;50.884;4.322;2022-07-17T11:23:24;5.00;;;2.55;;
22780;SDS011;11557;50.884;4.322;2022-07-17T11:25:55;4.57;;;2.72;;
22780;SDS011;11557;50.884;4.322;2022-07-17T11:31:00;3.30;;;2.42;;
22780;SDS011;11557;50.884;4.322;2022-07-17T11:33:27;7.07;;;2.65;;
22780;SDS011;11557;50.884;4.322;2022-07-17T11:35:53;5.63;;;2.35;;
22780;SDS011;11557;50.884;4.322;2022-07-17T11:38:25;3.83;;;1.95;;
22780;SDS011;11557;50.884;4.322;2022-07-17T11:40:52;5.47;;;2.42;;
22780;SDS011;11557;50.884;4.322;2022-07-17T11:43:18;6.10;;;2.20;;
22780;SDS011;11557;50.884;4.322;2022-07-17T11:45:44;4.18;;;2.13;;
22780;SDS011;11557;50.884;4.322;2022-07-17T11:48:10;4.97;;;2.42;;
22780;SDS011;11557;50.884;4.322;2022-07-17T11:50:36;7.10;;;2.20;;
22780;SDS011;11557;50.884;4.322;2022-07-17T11:53:03;7.10;;;2.30;;
22780;SDS011;11557;50.884;4.322;2022-07-17T11:55:37;4.72;;;2.50;;
22780;SDS011;11557;50.884;4.322;2022-07-17T11:58:03;4.65;;;2.17;;
22780;SDS011;11557;50.884;4.322;2022-07-17T12:00:29;4.53;;;2.83;;
22780;SDS011;11557;50.884;4.322;2022-07-17T12:03:02;4.10;;;2.28;;
22780;SDS011;11557;50.884;4.322;2022-07-17T12:05:31;5.70;;;2.55;;
22780;SDS011;11557;50.884;4.322;2022-07-17T12:07:58;3.67;;;2.13;;
22780;SDS011;11557;50.884;4.322;2022-07-17T12:10:25;3.45;;;2.50;;
22780;SDS011;11557;50.884;4.322;2022-07-17T12:12:57;4.47;;;2.65;;
22780;SDS011;11557;50.884;4.322;2022-07-17T12:15:43;5.82;;;2.30;;
22780;SDS011;11557;50.884;4.322;2022-07-17T12:18:21;5.25;;;2.70;;
22780;SDS011;11557;50.884;4.322;2022-07-17T12:20:49;3.58;;;2.17;;
22780;SDS011;11557;50.884;4.322;2022-07-17T12:23:29;6.10;;;2.72;;
22780;SDS011;11557;50.884;4.322;2022-07-17T12:26:13;5.72;;;2.33;;
22780;SDS011;11557;50.884;4.322;2022-07-17T12:28:42;5.10;;;2.30;;
22780;SDS011;11557;50.884;4.322;2022-07-17T12:31:08;3.60;;;2.13;;
22780;SDS011;11557;50.884;4.322;2022-07-17T12:33:34;5.40;;;2.50;;
22780;SDS011;11557;50.884;4.322;2022-07-17T12:36:00;4.95;;;2.63;;
22780;SDS011;11557;50.884;4.322;2022-07-17T12:38:25;5.45;;;2.75;;
22780;SDS011;11557;50.884;4.322;2022-07-17T12:40:51;3.90;;;2.50;;
22780;SDS011;11557;50.884;4.322;2022-07-17T12:43:18;2.53;;;2.13;;
22780;SDS011;11557;50.884;4.322;2022-07-17T12:45:43;3.05;;;2.42;;
22780;SDS011;11557;50.884;4.322;2022-07-17T12:48:09;3.88;;;2.78;;
22780;SDS011;11557;50.884;4.322;2022-07-17T12:50:36;4.07;;;3.05;;
22780;SDS011;11557;50.884;4.322;2022-07-17T12:53:02;3.88;;;2.80;;
22780;SDS011;11557;50.884;4.322;2022-07-17T12:55:28;3.60;;;2.92;;
22780;SDS011;11557;50.884;4.322;2022-07-17T12:57:54;5.32;;;2.85;;
22780;SDS011;11557;50.884;4.322;2022-07-17T13:00:19;6.22;;;2.70;;
22780;SDS011;11557;50.884;4.322;2022-07-17T13:02:45;4.90;;;2.50;;
22780;SDS011;11557;50.884;4.322;2022-07-17T13:05:11;3.38;;;2.50;;
22780;SDS011;11557;50.884;4.322;2022-07-17T13:07:40;4.25;;;2.90;;
22780;SDS011;11557;50.884;4.322;2022-07-17T13:10:05;3.00;;;2.33;;
22780;SDS011;11557;50.884;4.322;2022-07-17T13:12:31;4.07;;;2.60;;
22780;SDS011;11557;50.884;4.322;2022-07-17T13:14:57;5.28;;;2.88;;
22780;SDS011;11557;50.884;4.322;2022-07-17T13:17:22;5.47;;;2.58;;
22780;SDS011;11557;50.884;4.322;2022-07-17T13:19:48;5.18;;;2.50;;
22780;SDS011;11557;50.884;4.322;2022-07-17T13:22:14;2.92;;;2.33;;
22780;SDS011;11557;50.884;4.322;2022-07-17T13:24:40;4.97;;;2.50;;
22780;SDS011;11557;50.884;4.322;2022-07-17T13:27:05;5.70;;;2.17;;
22780;SDS011;11557;50.884;4.322;2022-07-17T13:29:31;3.33;;;2.60;;
22780;SDS011;11557;50.884;4.322;2022-07-17T13:31:57;3.50;;;2.50;;
22780;SDS011;11557;50.884;4.322;2022-07-17T13:34:23;6.35;;;2.75;;
22780;SDS011;11557;50.884;4.322;2022-07-17T13:36:49;4.68;;;2.33;;
22780;SDS011;11557;50.884;4.322;2022-07-17T13:39:15;2.67;;;2.08;;
22780;SDS011;11557;50.884;4.322;2022-07-17T13:41:41;3.25;;;2.30;;
22780;SDS011;11557;50.884;4.322;2022-07-17T13:44:08;4.15;;;2.60;;
22780;SDS011;11557;50.884;4.322;2022-07-17T13:46:36;3.85;;;2.30;;
22780;SDS011;11557;50.884;4.322;2022-07-17T13:49:02;4.35;;;2.50;;
22780;SDS011;11557;50.884;4.322;2022-07-17T13:51:29;4.13;;;2.60;;
22780;SDS011;11557;50.884;4.322;2022-07-17T13:53:55;3.35;;;2.40;;
22780;SDS011;11557;50.884;4.322;2022-07-17T13:56:23;3.45;;;2.15;;
22780;SDS011;11557;50.884;4.322;2022-07-17T13:58:49;4.50;;;2.60;;
22780;SDS011;11557;50.884;4.322;2022-07-17T14:01:15;3.95;;;2.60;;
22780;SDS011;11557;50.884;4.322;2022-07-17T14:03:41;4.68;;;2.40;;
22780;SDS011;11557;50.884;4.322;2022-07-17T14:06:07;4.20;;;2.50;;
22780;SDS011;11557;50.884;4.322;2022-07-17T14:08:33;4.50;;;2.55;;
22780;SDS011;11557;50.884;4.322;2022-07-17T14:11:00;3.35;;;2.42;;
22780;SDS011;11557;50.884;4.322;2022-07-17T14:13:25;5.22;;;2.90;;
22780;SDS011;11557;50.884;4.322;2022-07-17T14:15:51;4.05;;;2.60;;
22780;SDS011;11557;50.884;4.322;2022-07-17T14:18:18;3.95;;;2.35;;
22780;SDS011;11557;50.884;4.322;2022-07-17T14:20:45;4.00;;;2.58;;
22780;SDS011;11557;50.884;4.322;2022-07-17T14:23:11;3.83;;;2.67;;
22780;SDS011;11557;50.884;4.322;2022-07-17T14:25:36;3.08;;;2.30;;
22780;SDS011;11557;50.884;4.322;2022-07-17T14:28:02;4.20;;;2.13;;
22780;SDS011;11557;50.884;4.322;2022-07-17T14:30:28;2.50;;;2.15;;
22780;SDS011;11557;50.884;4.322;2022-07-17T14:32:54;4.80;;;2.30;;
22780;SDS011;11557;50.884;4.322;2022-07-17T14:35:19;4.25;;;2.40;;
22780;SDS011;11557;50.884;4.322;2022-07-17T14:37:45;4.38;;;2.40;;
22780;SDS011;11557;50.884;4.322;2022-07-17T14:40:12;5.00;;;2.33;;
22780;SDS011;11557;50.884;4.322;2022-07-17T14:42:39;4.57;;;2.10;;
22780;SDS011;11557;50.884;4.322;2022-07-17T14:45:05;7.78;;;2.30;;
22780;SDS011;11557;50.884;4.322;2022-07-17T14:47:31;5.47;;;2.28;;
22780;SDS011;11557;50.884;4.322;2022-07-17T14:49:57;6.55;;;2.33;;
22780;SDS011;11557;50.884;4.322;2022-07-17T14:52:23;5.80;;;2.30;;
22780;SDS011;11557;50.884;4.322;2022-07-17T14:54:48;5.30;;;2.30;;
22780;SDS011;11557;50.884;4.322;2022-07-17T14:57:14;4.43;;;2.40;;
22780;SDS011;11557;50.884;4.322;2022-07-17T14:59:40;3.10;;;2.28;;
22780;SDS011;11557;50.884;4.322;2022-07-17T15:02:06;4.50;;;2.20;;
22780;SDS011;11557;50.884;4.322;2022-07-17T15:04:31;4.72;;;3.05;;
22780;SDS011;11557;50.884;4.322;2022-07-17T15:07:00;3.47;;;2.00;;
22780;SDS011;11557;50.884;4.322;2022-07-17T15:09:28;2.90;;;2.40;;
22780;SDS011;11557;50.884;4.322;2022-07-17T15:11:54;2.53;;;2.00;;